<?xml version="1.0" encoding="UTF-8" standalone="no" ?>
<gpx xmlns="http://www.topografix.com/GPX/1/1" xmlns:xsi="http://www.w3.org/2001/XMLSchema-instance" xsi:schemaLocation="http://www.topografix.com/GPX/1/1 http://www.topografix.com/GPX/1/1/gpx.xsd" version="1.1" creator="VisuGPX - https://www.visugpx.com">
  <metadata>
    <name>Regordane</name>
    <desc><![CDATA[Vista Hcx
Pradelles - La Bastide-Puylaurent
Pluie, vent, froid , départ 4° !
Longue étape, mais belle, beaucoup de revêtement goudronné !
]]></desc>
  </metadata>
  <trk>
    <name><![CDATA[ACTIVE LOG160013]]></name>
    <trkseg>
      <trkpt lat="44.59243" lon="3.90604">
        <ele>1017.123</ele>
        <time>2011-06-01T14:00:13Z</time>
      </trkpt>
      <trkpt lat="44.59246" lon="3.90605">
        <ele>1016.792</ele>
        <time>2011-06-01T14:00:23Z</time>
      </trkpt>
      <trkpt lat="44.59242" lon="3.90577">
        <ele>1016.198</ele>
        <time>2011-06-01T14:00:33Z</time>
      </trkpt>
      <trkpt lat="44.59233" lon="3.9057">
        <ele>1016.697</ele>
        <time>2011-06-01T14:00:43Z</time>
      </trkpt>
      <trkpt lat="44.59229" lon="3.90572">
        <ele>1017.324</ele>
        <time>2011-06-01T14:00:53Z</time>
      </trkpt>
      <trkpt lat="44.59215" lon="3.90568">
        <ele>1017.263</ele>
        <time>2011-06-01T14:01:03Z</time>
      </trkpt>
      <trkpt lat="44.5922" lon="3.90576">
        <ele>1014.834</ele>
        <time>2011-06-01T14:01:13Z</time>
      </trkpt>
      <trkpt lat="44.59219" lon="3.90579">
        <ele>1016.507</ele>
        <time>2011-06-01T14:01:23Z</time>
      </trkpt>
      <trkpt lat="44.59219" lon="3.90579">
        <ele>1015.854</ele>
        <time>2011-06-01T14:01:33Z</time>
      </trkpt>
      <trkpt lat="44.59219" lon="3.90578">
        <ele>1016.325</ele>
        <time>2011-06-01T14:01:43Z</time>
      </trkpt>
      <trkpt lat="44.59219" lon="3.90577">
        <ele>1016.483</ele>
        <time>2011-06-01T14:01:53Z</time>
      </trkpt>
      <trkpt lat="44.59215" lon="3.90577">
        <ele>1016.14</ele>
        <time>2011-06-01T14:02:03Z</time>
      </trkpt>
      <trkpt lat="44.59212" lon="3.90579">
        <ele>1016.242</ele>
        <time>2011-06-01T14:02:13Z</time>
      </trkpt>
      <trkpt lat="44.59212" lon="3.90579">
        <ele>1016.746</ele>
        <time>2011-06-01T14:02:23Z</time>
      </trkpt>
      <trkpt lat="44.59213" lon="3.90579">
        <ele>1015.37</ele>
        <time>2011-06-01T14:02:33Z</time>
      </trkpt>
      <trkpt lat="44.59215" lon="3.90578">
        <ele>1016.852</ele>
        <time>2011-06-01T14:02:43Z</time>
      </trkpt>
      <trkpt lat="44.59216" lon="3.90577">
        <ele>1016.017</ele>
        <time>2011-06-01T14:02:53Z</time>
      </trkpt>
      <trkpt lat="44.59217" lon="3.90577">
        <ele>1016.361</ele>
        <time>2011-06-01T14:03:03Z</time>
      </trkpt>
      <trkpt lat="44.59219" lon="3.90577">
        <ele>1016.683</ele>
        <time>2011-06-01T14:03:13Z</time>
      </trkpt>
      <trkpt lat="44.5922" lon="3.90577">
        <ele>1017.172</ele>
        <time>2011-06-01T14:03:23Z</time>
      </trkpt>
      <trkpt lat="44.59222" lon="3.90576">
        <ele>1016.501</ele>
        <time>2011-06-01T14:03:33Z</time>
      </trkpt>
      <trkpt lat="44.59223" lon="3.90575">
        <ele>1015.93</ele>
        <time>2011-06-01T14:03:43Z</time>
      </trkpt>
      <trkpt lat="44.59222" lon="3.90574">
        <ele>1018.02</ele>
        <time>2011-06-01T14:03:53Z</time>
      </trkpt>
      <trkpt lat="44.59221" lon="3.90572">
        <ele>1017.521</ele>
        <time>2011-06-01T14:04:03Z</time>
      </trkpt>
      <trkpt lat="44.5922" lon="3.90572">
        <ele>1017.367</ele>
        <time>2011-06-01T14:04:13Z</time>
      </trkpt>
      <trkpt lat="44.59219" lon="3.9057">
        <ele>1016.599</ele>
        <time>2011-06-01T14:04:23Z</time>
      </trkpt>
      <trkpt lat="44.59217" lon="3.90566">
        <ele>1015.335</ele>
        <time>2011-06-01T14:04:33Z</time>
      </trkpt>
      <trkpt lat="44.59216" lon="3.90564">
        <ele>1017.009</ele>
        <time>2011-06-01T14:04:43Z</time>
      </trkpt>
      <trkpt lat="44.59216" lon="3.90562">
        <ele>1012.886</ele>
        <time>2011-06-01T14:04:53Z</time>
      </trkpt>
      <trkpt lat="44.59215" lon="3.9056">
        <ele>1015.217</ele>
        <time>2011-06-01T14:05:03Z</time>
      </trkpt>
      <trkpt lat="44.59216" lon="3.90559">
        <ele>1015.139</ele>
        <time>2011-06-01T14:05:13Z</time>
      </trkpt>
      <trkpt lat="44.59217" lon="3.90558">
        <ele>1015.573</ele>
        <time>2011-06-01T14:05:23Z</time>
      </trkpt>
      <trkpt lat="44.59219" lon="3.90559">
        <ele>1015.688</ele>
        <time>2011-06-01T14:05:33Z</time>
      </trkpt>
      <trkpt lat="44.59222" lon="3.90567">
        <ele>1016.961</ele>
        <time>2011-06-01T14:05:43Z</time>
      </trkpt>
      <trkpt lat="44.59223" lon="3.90568">
        <ele>1016.071</ele>
        <time>2011-06-01T14:05:53Z</time>
      </trkpt>
      <trkpt lat="44.59223" lon="3.90569">
        <ele>1016.151</ele>
        <time>2011-06-01T14:06:03Z</time>
      </trkpt>
      <trkpt lat="44.59224" lon="3.90569">
        <ele>1016.063</ele>
        <time>2011-06-01T14:06:13Z</time>
      </trkpt>
      <trkpt lat="44.59224" lon="3.90569">
        <ele>1015.875</ele>
        <time>2011-06-01T14:06:23Z</time>
      </trkpt>
      <trkpt lat="44.59224" lon="3.90569">
        <ele>1015.638</ele>
        <time>2011-06-01T14:06:33Z</time>
      </trkpt>
      <trkpt lat="44.59224" lon="3.90569">
        <ele>1015.195</ele>
        <time>2011-06-01T14:06:43Z</time>
      </trkpt>
      <trkpt lat="44.59224" lon="3.90569">
        <ele>1015.584</ele>
        <time>2011-06-01T14:06:53Z</time>
      </trkpt>
      <trkpt lat="44.59224" lon="3.90569">
        <ele>1016.011</ele>
        <time>2011-06-01T14:07:03Z</time>
      </trkpt>
      <trkpt lat="44.59224" lon="3.90569">
        <ele>1015.774</ele>
        <time>2011-06-01T14:07:13Z</time>
      </trkpt>
      <trkpt lat="44.59224" lon="3.90569">
        <ele>1015.757</ele>
        <time>2011-06-01T14:07:23Z</time>
      </trkpt>
      <trkpt lat="44.59223" lon="3.90569">
        <ele>1015.467</ele>
        <time>2011-06-01T14:07:33Z</time>
      </trkpt>
      <trkpt lat="44.59223" lon="3.90569">
        <ele>1014.501</ele>
        <time>2011-06-01T14:07:43Z</time>
      </trkpt>
      <trkpt lat="44.59223" lon="3.90569">
        <ele>1014.889</ele>
        <time>2011-06-01T14:07:53Z</time>
      </trkpt>
      <trkpt lat="44.59223" lon="3.90569">
        <ele>1014.757</ele>
        <time>2011-06-01T14:08:03Z</time>
      </trkpt>
      <trkpt lat="44.59223" lon="3.90569">
        <ele>1014.205</ele>
        <time>2011-06-01T14:08:13Z</time>
      </trkpt>
      <trkpt lat="44.59223" lon="3.90569">
        <ele>1014.435</ele>
        <time>2011-06-01T14:08:23Z</time>
      </trkpt>
      <trkpt lat="44.59223" lon="3.90569">
        <ele>1014.617</ele>
        <time>2011-06-01T14:08:33Z</time>
      </trkpt>
      <trkpt lat="44.59223" lon="3.90569">
        <ele>1014.979</ele>
        <time>2011-06-01T14:08:43Z</time>
      </trkpt>
      <trkpt lat="44.59223" lon="3.90569">
        <ele>1014.549</ele>
        <time>2011-06-01T14:08:53Z</time>
      </trkpt>
      <trkpt lat="44.59223" lon="3.90569">
        <ele>1014.161</ele>
        <time>2011-06-01T14:09:03Z</time>
      </trkpt>
      <trkpt lat="44.59223" lon="3.90569">
        <ele>1014.73</ele>
        <time>2011-06-01T14:09:13Z</time>
      </trkpt>
      <trkpt lat="44.59223" lon="3.90569">
        <ele>1013.537</ele>
        <time>2011-06-01T14:09:23Z</time>
      </trkpt>
      <trkpt lat="44.59223" lon="3.90569">
        <ele>1015.506</ele>
        <time>2011-06-01T14:09:33Z</time>
      </trkpt>
      <trkpt lat="44.59223" lon="3.90569">
        <ele>1014.813</ele>
        <time>2011-06-01T14:09:43Z</time>
      </trkpt>
      <trkpt lat="44.59223" lon="3.90569">
        <ele>1014.721</ele>
        <time>2011-06-01T14:09:53Z</time>
      </trkpt>
      <trkpt lat="44.59223" lon="3.90568">
        <ele>1014.363</ele>
        <time>2011-06-01T14:10:03Z</time>
      </trkpt>
      <trkpt lat="44.59223" lon="3.90568">
        <ele>1014.552</ele>
        <time>2011-06-01T14:10:13Z</time>
      </trkpt>
      <trkpt lat="44.59223" lon="3.90568">
        <ele>1014.848</ele>
        <time>2011-06-01T14:10:23Z</time>
      </trkpt>
      <trkpt lat="44.59222" lon="3.90568">
        <ele>1014.606</ele>
        <time>2011-06-01T14:10:33Z</time>
      </trkpt>
      <trkpt lat="44.59222" lon="3.90568">
        <ele>1013.977</ele>
        <time>2011-06-01T14:10:43Z</time>
      </trkpt>
      <trkpt lat="44.59222" lon="3.90568">
        <ele>1013.129</ele>
        <time>2011-06-01T14:10:53Z</time>
      </trkpt>
      <trkpt lat="44.59222" lon="3.90568">
        <ele>1013.634</ele>
        <time>2011-06-01T14:11:03Z</time>
      </trkpt>
      <trkpt lat="44.59222" lon="3.90568">
        <ele>1013.036</ele>
        <time>2011-06-01T14:11:13Z</time>
      </trkpt>
      <trkpt lat="44.59222" lon="3.90568">
        <ele>1014.586</ele>
        <time>2011-06-01T14:11:23Z</time>
      </trkpt>
      <trkpt lat="44.59222" lon="3.90568">
        <ele>1014.075</ele>
        <time>2011-06-01T14:11:33Z</time>
      </trkpt>
      <trkpt lat="44.59222" lon="3.90568">
        <ele>1014.344</ele>
        <time>2011-06-01T14:11:43Z</time>
      </trkpt>
      <trkpt lat="44.59222" lon="3.90568">
        <ele>1014.863</ele>
        <time>2011-06-01T14:11:53Z</time>
      </trkpt>
      <trkpt lat="44.59222" lon="3.90568">
        <ele>1014.963</ele>
        <time>2011-06-01T14:12:03Z</time>
      </trkpt>
      <trkpt lat="44.59222" lon="3.90568">
        <ele>1013.429</ele>
        <time>2011-06-01T14:12:13Z</time>
      </trkpt>
      <trkpt lat="44.59222" lon="3.90568">
        <ele>1014.27</ele>
        <time>2011-06-01T14:12:23Z</time>
      </trkpt>
      <trkpt lat="44.59222" lon="3.90568">
        <ele>1013.631</ele>
        <time>2011-06-01T14:12:33Z</time>
      </trkpt>
      <trkpt lat="44.59222" lon="3.90569">
        <ele>1013.822</ele>
        <time>2011-06-01T14:12:43Z</time>
      </trkpt>
      <trkpt lat="44.59222" lon="3.90569">
        <ele>1013.425</ele>
        <time>2011-06-01T14:12:53Z</time>
      </trkpt>
      <trkpt lat="44.59222" lon="3.90569">
        <ele>1013.533</ele>
        <time>2011-06-01T14:13:03Z</time>
      </trkpt>
      <trkpt lat="44.59222" lon="3.90569">
        <ele>1014.432</ele>
        <time>2011-06-01T14:13:13Z</time>
      </trkpt>
      <trkpt lat="44.59223" lon="3.9057">
        <ele>1014.04</ele>
        <time>2011-06-01T14:13:23Z</time>
      </trkpt>
      <trkpt lat="44.59223" lon="3.90569">
        <ele>1013.761</ele>
        <time>2011-06-01T14:13:33Z</time>
      </trkpt>
      <trkpt lat="44.59223" lon="3.90569">
        <ele>1014.295</ele>
        <time>2011-06-01T14:13:43Z</time>
      </trkpt>
      <trkpt lat="44.59223" lon="3.9057">
        <ele>1013.877</ele>
        <time>2011-06-01T14:13:53Z</time>
      </trkpt>
      <trkpt lat="44.59224" lon="3.9057">
        <ele>1014.097</ele>
        <time>2011-06-01T14:14:03Z</time>
      </trkpt>
      <trkpt lat="44.59224" lon="3.90571">
        <ele>1013.993</ele>
        <time>2011-06-01T14:14:13Z</time>
      </trkpt>
      <trkpt lat="44.59225" lon="3.90571">
        <ele>1013.375</ele>
        <time>2011-06-01T14:14:23Z</time>
      </trkpt>
      <trkpt lat="44.59226" lon="3.9057">
        <ele>1014.523</ele>
        <time>2011-06-01T14:14:33Z</time>
      </trkpt>
      <trkpt lat="44.59227" lon="3.90568">
        <ele>1014.46</ele>
        <time>2011-06-01T14:14:43Z</time>
      </trkpt>
      <trkpt lat="44.59227" lon="3.90568">
        <ele>1013.715</ele>
        <time>2011-06-01T14:14:53Z</time>
      </trkpt>
      <trkpt lat="44.59226" lon="3.90569">
        <ele>1014.142</ele>
        <time>2011-06-01T14:15:03Z</time>
      </trkpt>
      <trkpt lat="44.59226" lon="3.90568">
        <ele>1013.335</ele>
        <time>2011-06-01T14:15:13Z</time>
      </trkpt>
      <trkpt lat="44.59226" lon="3.90569">
        <ele>1012.624</ele>
        <time>2011-06-01T14:15:23Z</time>
      </trkpt>
      <trkpt lat="44.59226" lon="3.90569">
        <ele>1013.737</ele>
        <time>2011-06-01T14:15:33Z</time>
      </trkpt>
      <trkpt lat="44.59226" lon="3.90569">
        <ele>1013.486</ele>
        <time>2011-06-01T14:15:43Z</time>
      </trkpt>
      <trkpt lat="44.59226" lon="3.9057">
        <ele>1013.693</ele>
        <time>2011-06-01T14:15:53Z</time>
      </trkpt>
      <trkpt lat="44.59226" lon="3.90572">
        <ele>1013.473</ele>
        <time>2011-06-01T14:16:03Z</time>
      </trkpt>
      <trkpt lat="44.59225" lon="3.90572">
        <ele>1013.359</ele>
        <time>2011-06-01T14:16:13Z</time>
      </trkpt>
      <trkpt lat="44.59224" lon="3.90572">
        <ele>1013.592</ele>
        <time>2011-06-01T14:16:23Z</time>
      </trkpt>
      <trkpt lat="44.59223" lon="3.90572">
        <ele>1013.448</ele>
        <time>2011-06-01T14:16:33Z</time>
      </trkpt>
      <trkpt lat="44.59222" lon="3.90572">
        <ele>1013.473</ele>
        <time>2011-06-01T14:16:43Z</time>
      </trkpt>
      <trkpt lat="44.5922" lon="3.90572">
        <ele>1013.058</ele>
        <time>2011-06-01T14:16:53Z</time>
      </trkpt>
      <trkpt lat="44.59219" lon="3.90571">
        <ele>1013.125</ele>
        <time>2011-06-01T14:17:03Z</time>
      </trkpt>
      <trkpt lat="44.59218" lon="3.90571">
        <ele>1014.191</ele>
        <time>2011-06-01T14:17:13Z</time>
      </trkpt>
      <trkpt lat="44.59217" lon="3.90572">
        <ele>1014.159</ele>
        <time>2011-06-01T14:17:23Z</time>
      </trkpt>
      <trkpt lat="44.59216" lon="3.90572">
        <ele>1013.945</ele>
        <time>2011-06-01T14:17:33Z</time>
      </trkpt>
      <trkpt lat="44.59216" lon="3.90572">
        <ele>1015.003</ele>
        <time>2011-06-01T14:17:43Z</time>
      </trkpt>
      <trkpt lat="44.59216" lon="3.90572">
        <ele>1013.998</ele>
        <time>2011-06-01T14:17:53Z</time>
      </trkpt>
      <trkpt lat="44.59216" lon="3.90572">
        <ele>1013.986</ele>
        <time>2011-06-01T14:18:03Z</time>
      </trkpt>
      <trkpt lat="44.59217" lon="3.90571">
        <ele>1014.902</ele>
        <time>2011-06-01T14:18:13Z</time>
      </trkpt>
      <trkpt lat="44.59222" lon="3.9057">
        <ele>1015.026</ele>
        <time>2011-06-01T14:18:23Z</time>
      </trkpt>
      <trkpt lat="44.59227" lon="3.9057">
        <ele>1014.139</ele>
        <time>2011-06-01T14:18:33Z</time>
      </trkpt>
      <trkpt lat="44.59231" lon="3.9057">
        <ele>1014.951</ele>
        <time>2011-06-01T14:18:43Z</time>
      </trkpt>
      <trkpt lat="44.59232" lon="3.9057">
        <ele>1013.815</ele>
        <time>2011-06-01T14:18:53Z</time>
      </trkpt>
      <trkpt lat="44.59234" lon="3.90569">
        <ele>1014.214</ele>
        <time>2011-06-01T14:19:03Z</time>
      </trkpt>
      <trkpt lat="44.59237" lon="3.90569">
        <ele>1015.685</ele>
        <time>2011-06-01T14:19:13Z</time>
      </trkpt>
      <trkpt lat="44.59238" lon="3.9057">
        <ele>1014.738</ele>
        <time>2011-06-01T14:19:23Z</time>
      </trkpt>
      <trkpt lat="44.5924" lon="3.9057">
        <ele>1014.203</ele>
        <time>2011-06-01T14:19:33Z</time>
      </trkpt>
      <trkpt lat="44.59235" lon="3.90571">
        <ele>1015.85</ele>
        <time>2011-06-01T14:19:43Z</time>
      </trkpt>
      <trkpt lat="44.59224" lon="3.90571">
        <ele>1015.038</ele>
        <time>2011-06-01T14:19:53Z</time>
      </trkpt>
      <trkpt lat="44.59216" lon="3.90572">
        <ele>1015.116</ele>
        <time>2011-06-01T14:20:03Z</time>
      </trkpt>
      <trkpt lat="44.59213" lon="3.90572">
        <ele>1015.014</ele>
        <time>2011-06-01T14:20:13Z</time>
      </trkpt>
      <trkpt lat="44.59214" lon="3.90572">
        <ele>1014.679</ele>
        <time>2011-06-01T14:20:23Z</time>
      </trkpt>
      <trkpt lat="44.59214" lon="3.90571">
        <ele>1015.13</ele>
        <time>2011-06-01T14:20:33Z</time>
      </trkpt>
      <trkpt lat="44.59213" lon="3.9057">
        <ele>1015.627</ele>
        <time>2011-06-01T14:20:43Z</time>
      </trkpt>
      <trkpt lat="44.59213" lon="3.9057">
        <ele>1015.374</ele>
        <time>2011-06-01T14:20:53Z</time>
      </trkpt>
      <trkpt lat="44.59213" lon="3.9057">
        <ele>1014.551</ele>
        <time>2011-06-01T14:21:03Z</time>
      </trkpt>
      <trkpt lat="44.59214" lon="3.9057">
        <ele>1015.069</ele>
        <time>2011-06-01T14:21:13Z</time>
      </trkpt>
      <trkpt lat="44.59217" lon="3.90571">
        <ele>1015.075</ele>
        <time>2011-06-01T14:21:23Z</time>
      </trkpt>
      <trkpt lat="44.59219" lon="3.90569">
        <ele>1015.314</ele>
        <time>2011-06-01T14:21:33Z</time>
      </trkpt>
      <trkpt lat="44.59221" lon="3.90565">
        <ele>1015.51</ele>
        <time>2011-06-01T14:21:43Z</time>
      </trkpt>
      <trkpt lat="44.59222" lon="3.90565">
        <ele>1016.075</ele>
        <time>2011-06-01T14:21:53Z</time>
      </trkpt>
      <trkpt lat="44.59227" lon="3.90566">
        <ele>1015.679</ele>
        <time>2011-06-01T14:22:03Z</time>
      </trkpt>
      <trkpt lat="44.5923" lon="3.90566">
        <ele>1015.592</ele>
        <time>2011-06-01T14:22:13Z</time>
      </trkpt>
      <trkpt lat="44.59229" lon="3.90565">
        <ele>1015.962</ele>
        <time>2011-06-01T14:22:23Z</time>
      </trkpt>
      <trkpt lat="44.5923" lon="3.90565">
        <ele>1015.893</ele>
        <time>2011-06-01T14:22:33Z</time>
      </trkpt>
      <trkpt lat="44.59228" lon="3.90564">
        <ele>1015.431</ele>
        <time>2011-06-01T14:22:43Z</time>
      </trkpt>
      <trkpt lat="44.59226" lon="3.90564">
        <ele>1014.722</ele>
        <time>2011-06-01T14:22:53Z</time>
      </trkpt>
      <trkpt lat="44.5922" lon="3.90571">
        <ele>1016.028</ele>
        <time>2011-06-01T14:23:03Z</time>
      </trkpt>
      <trkpt lat="44.59218" lon="3.90575">
        <ele>1015.917</ele>
        <time>2011-06-01T14:23:13Z</time>
      </trkpt>
      <trkpt lat="44.59217" lon="3.90576">
        <ele>1015.386</ele>
        <time>2011-06-01T14:23:23Z</time>
      </trkpt>
      <trkpt lat="44.59218" lon="3.90577">
        <ele>1015.476</ele>
        <time>2011-06-01T14:23:33Z</time>
      </trkpt>
      <trkpt lat="44.59219" lon="3.90577">
        <ele>1015.713</ele>
        <time>2011-06-01T14:23:43Z</time>
      </trkpt>
      <trkpt lat="44.59221" lon="3.90576">
        <ele>1016.176</ele>
        <time>2011-06-01T14:23:53Z</time>
      </trkpt>
      <trkpt lat="44.59219" lon="3.90575">
        <ele>1015.831</ele>
        <time>2011-06-01T14:24:03Z</time>
      </trkpt>
      <trkpt lat="44.59217" lon="3.90575">
        <ele>1016.373</ele>
        <time>2011-06-01T14:24:13Z</time>
      </trkpt>
    </trkseg>
  </trk>
</gpx>